createdAt,value
2023-05-21T00:00:01.780Z,25.00
2023-05-21T00:01:01.804Z,25.00
2023-05-21T00:02:01.845Z,0.00
2023-05-21T00:03:01.961Z,0.00
2023-05-21T00:04:02.008Z,0.00
2023-05-21T00:05:01.967Z,0.00
2023-05-21T00:06:02.077Z,0.00
2023-05-21T00:07:02.077Z,0.00
2023-05-21T00:08:02.112Z,1.38
2023-05-21T00:09:02.157Z,15.10
2023-05-21T00:10:02.206Z,25.42
2023-05-21T00:11:02.248Z,25.00
2023-05-21T00:12:02.311Z,26.37
2023-05-21T00:13:02.304Z,25.00
2023-05-21T00:14:02.334Z,24.50
2023-05-21T00:15:02.376Z,25.00
2023-05-21T00:16:02.470Z,25.61
2023-05-21T00:17:02.477Z,28.60
2023-05-21T00:18:02.525Z,25.69
2023-05-21T00:19:02.551Z,25.00
2023-05-21T00:20:02.536Z,26.42
2023-05-21T00:21:02.572Z,25.00
2023-05-21T00:22:02.628Z,25.00
2023-05-21T00:23:02.669Z,26.75
2023-05-21T00:24:02.680Z,26.35
2023-05-21T00:25:02.725Z,25.59
2023-05-21T00:26:02.782Z,26.22
2023-05-21T00:27:02.822Z,26.14
2023-05-21T00:28:02.887Z,25.29
2023-05-21T00:29:02.885Z,26.26
2023-05-21T00:30:02.907Z,25.76
2023-05-21T00:31:02.912Z,25.89
2023-05-21T00:32:03.079Z,25.00
2023-05-21T00:33:03.159Z,25.00
2023-05-21T00:34:02.959Z,26.19
2023-05-21T00:35:02.954Z,27.17
2023-05-21T00:36:02.941Z,26.41
2023-05-21T00:37:02.961Z,26.82
2023-05-21T00:38:02.944Z,26.30
2023-05-21T00:39:02.984Z,26.07
2023-05-21T00:40:02.978Z,25.64
2023-05-21T00:41:02.993Z,26.23
2023-05-21T00:42:03.002Z,29.05
2023-05-21T00:43:03.050Z,25.92
2023-05-21T00:44:03.157Z,26.53
2023-05-21T00:45:03.054Z,26.47
2023-05-21T00:46:03.098Z,26.27
2023-05-21T00:47:03.073Z,25.83
2023-05-21T00:48:03.109Z,25.43
2023-05-21T00:49:03.080Z,26.32
2023-05-21T00:50:03.096Z,27.01
2023-05-21T00:51:03.108Z,27.51
2023-05-21T00:52:03.086Z,28.08
2023-05-21T00:53:03.090Z,28.82
2023-05-21T00:54:03.117Z,28.29
2023-05-21T00:55:03.117Z,26.64
2023-05-21T00:56:03.119Z,28.43
2023-05-21T00:57:03.124Z,29.40
2023-05-21T00:58:03.145Z,28.62
2023-05-21T00:59:03.134Z,27.99
2023-05-21T01:00:03.170Z,26.84
2023-05-21T01:01:03.181Z,27.23
2023-05-21T01:02:03.196Z,26.35
2023-05-21T01:03:03.262Z,28.46
2023-05-21T01:04:03.181Z,27.82
2023-05-21T01:05:03.217Z,27.25
2023-05-21T01:06:03.200Z,25.32
2023-05-21T01:07:03.170Z,27.17
2023-05-21T01:08:03.191Z,28.18
2023-05-21T01:09:04.996Z,27.86
2023-05-21T01:10:03.185Z,27.38
2023-05-21T01:11:03.169Z,28.73
2023-05-21T01:12:03.157Z,27.09
2023-05-21T01:13:03.155Z,27.32
2023-05-21T01:14:03.131Z,25.00
2023-05-21T01:15:03.116Z,27.68
2023-05-21T01:16:03.139Z,25.93
2023-05-21T01:17:03.163Z,25.11
2023-05-21T01:18:03.147Z,26.98
2023-05-21T01:19:03.136Z,26.47
2023-05-21T01:20:03.058Z,27.12
2023-05-21T01:21:03.052Z,26.22
2023-05-21T01:22:03.037Z,25.86
2023-05-21T01:23:03.033Z,27.19
2023-05-21T01:24:03.041Z,28.66
2023-05-21T01:25:03.102Z,28.36
2023-05-21T01:26:02.986Z,26.96
2023-05-21T01:27:03.020Z,26.21
2023-05-21T01:28:02.973Z,29.01
2023-05-21T01:29:02.953Z,28.57
2023-05-21T01:30:02.981Z,28.19
2023-05-21T01:31:02.963Z,26.56
2023-05-21T01:32:02.977Z,28.71
2023-05-21T01:33:03.046Z,28.49
2023-05-21T01:34:02.982Z,27.75
2023-05-21T01:35:02.904Z,28.45
2023-05-21T01:36:02.896Z,27.92
2023-05-21T01:37:02.876Z,27.61
2023-05-21T01:38:02.870Z,28.42
2023-05-21T01:39:02.852Z,29.02
2023-05-21T01:40:02.841Z,29.70
2023-05-21T01:41:02.827Z,25.70
2023-05-21T01:42:02.827Z,28.33
2023-05-21T01:43:02.814Z,27.09
2023-05-21T01:44:02.801Z,26.50
2023-05-21T01:45:02.789Z,26.29
2023-05-21T01:46:02.837Z,25.19
2023-05-21T01:47:02.768Z,27.81
2023-05-21T01:48:02.778Z,27.07
2023-05-21T01:49:02.723Z,27.32
2023-05-21T01:50:02.717Z,28.10
2023-05-21T01:51:02.701Z,26.04
2023-05-21T01:52:02.697Z,28.15
2023-05-21T01:53:02.676Z,28.46
2023-05-21T01:54:02.658Z,27.57
2023-05-21T01:55:02.646Z,25.57
2023-05-21T01:56:02.652Z,28.01
2023-05-21T01:57:02.646Z,27.80
2023-05-21T01:58:02.814Z,29.86
2023-05-21T01:59:02.610Z,26.72
2023-05-21T02:00:02.612Z,28.56
2023-05-21T02:01:02.600Z,28.36
2023-05-21T02:02:02.646Z,28.15
2023-05-21T02:03:02.678Z,26.20
2023-05-21T02:04:02.765Z,28.31
2023-05-21T02:05:02.568Z,26.55
2023-05-21T02:06:02.554Z,28.91
2023-05-21T02:07:02.550Z,26.69
2023-05-21T02:08:02.532Z,26.89
2023-05-21T02:09:02.534Z,25.02
2023-05-21T02:10:02.521Z,28.74
2023-05-21T02:11:02.510Z,26.79
2023-05-21T02:12:02.498Z,27.09
2023-05-21T02:13:02.489Z,27.25
2023-05-21T02:14:02.474Z,27.11
2023-05-21T02:15:02.461Z,27.17
2023-05-21T02:16:02.498Z,28.84
2023-05-21T02:17:02.447Z,27.56
2023-05-21T02:18:02.528Z,27.90
2023-05-21T02:19:02.452Z,29.59
2023-05-21T02:20:02.424Z,25.68
2023-05-21T02:21:02.396Z,26.11
2023-05-21T02:22:02.387Z,27.29
2023-05-21T02:23:02.372Z,27.04
2023-05-21T02:24:02.390Z,27.65
2023-05-21T02:25:02.376Z,27.95
2023-05-21T02:26:02.372Z,28.32
2023-05-21T02:27:02.360Z,28.42
2023-05-21T02:28:02.340Z,30.05
2023-05-21T02:29:02.395Z,26.42
2023-05-21T02:30:02.307Z,26.46
2023-05-21T02:31:02.297Z,25.32
2023-05-21T02:32:02.283Z,28.11
2023-05-21T02:33:02.365Z,29.12
2023-05-21T02:34:02.299Z,26.42
2023-05-21T02:35:02.255Z,27.38
2023-05-21T02:36:02.258Z,26.42
2023-05-21T02:37:02.216Z,27.67
2023-05-21T02:38:02.202Z,28.27
2023-05-21T02:39:02.189Z,28.62
2023-05-21T02:40:02.191Z,28.29
2023-05-21T02:41:02.176Z,28.73
2023-05-21T02:42:02.181Z,28.23
2023-05-21T02:43:02.150Z,29.35
2023-05-21T02:44:02.132Z,26.94
2023-05-21T02:45:02.147Z,27.21
2023-05-21T02:46:02.137Z,26.74
2023-05-21T02:47:02.108Z,27.57
2023-05-21T02:48:02.126Z,27.15
2023-05-21T02:49:02.066Z,27.30
2023-05-21T02:50:02.078Z,28.85
2023-05-21T02:51:02.018Z,26.71
2023-05-21T02:52:02.026Z,26.04
2023-05-21T02:53:01.983Z,28.19
2023-05-21T02:54:01.989Z,27.53
2023-05-21T02:55:01.973Z,26.68
2023-05-21T02:56:01.960Z,28.73
2023-05-21T02:57:01.954Z,29.08
2023-05-21T02:58:01.941Z,27.31
2023-05-21T02:59:01.954Z,29.07
2023-05-21T03:00:01.988Z,27.56
2023-05-21T03:01:01.993Z,27.43
2023-05-21T03:02:01.988Z,28.51
2023-05-21T03:03:02.048Z,27.48
2023-05-21T03:04:01.945Z,25.75
2023-05-21T03:05:01.932Z,27.49
2023-05-21T03:06:01.945Z,27.85
2023-05-21T03:07:01.938Z,27.63
2023-05-21T03:08:01.952Z,25.28
2023-05-21T03:09:01.927Z,26.72
2023-05-21T03:10:01.924Z,27.36
2023-05-21T03:11:01.925Z,27.51
2023-05-21T03:12:01.919Z,25.10
2023-05-21T03:13:02.028Z,29.49
2023-05-21T03:14:01.894Z,27.35
2023-05-21T03:15:01.899Z,28.54
2023-05-21T03:16:01.896Z,29.70
2023-05-21T03:17:01.973Z,27.69
2023-05-21T03:18:02.044Z,27.65
2023-05-21T03:19:01.914Z,27.75
2023-05-21T03:20:01.946Z,27.57
2023-05-21T03:21:01.893Z,26.28
2023-05-21T03:22:01.902Z,27.22
2023-05-21T03:23:01.881Z,28.07
2023-05-21T03:24:01.915Z,28.39
2023-05-21T03:25:01.916Z,28.29
2023-05-21T03:26:01.877Z,27.15
2023-05-21T03:27:01.884Z,27.34
2023-05-21T03:28:01.865Z,29.19
2023-05-21T03:29:01.852Z,27.12
2023-05-21T03:30:01.851Z,28.93
2023-05-21T03:31:01.849Z,27.26
2023-05-21T03:32:01.895Z,28.26
2023-05-21T03:33:01.900Z,27.87
2023-05-21T03:34:01.826Z,26.84
2023-05-21T03:35:01.875Z,28.52
2023-05-21T03:36:01.831Z,29.04
2023-05-21T03:37:01.816Z,27.92
2023-05-21T03:38:01.816Z,26.67
2023-05-21T03:39:01.823Z,26.43
2023-05-21T03:40:01.825Z,26.64
2023-05-21T03:41:01.800Z,26.42
2023-05-21T03:42:01.811Z,25.20
2023-05-21T03:43:01.800Z,28.87
2023-05-21T03:44:01.847Z,27.42
2023-05-21T03:45:01.826Z,28.63
2023-05-21T03:46:01.886Z,28.82
2023-05-21T03:47:01.848Z,28.64
2023-05-21T03:48:02.003Z,26.99
2023-05-21T03:49:01.850Z,29.75
2023-05-21T03:50:01.918Z,28.87
2023-05-21T03:51:01.852Z,28.57
2023-05-21T03:52:01.826Z,27.02
2023-05-21T03:53:01.825Z,30.22
2023-05-21T03:54:01.836Z,26.10
2023-05-21T03:55:01.826Z,28.58
2023-05-21T03:56:01.836Z,28.03
2023-05-21T03:57:01.816Z,26.61
2023-05-21T03:58:01.810Z,30.08
2023-05-21T03:59:01.810Z,28.18
2023-05-21T04:00:01.813Z,28.38
2023-05-21T04:01:01.815Z,28.27
2023-05-21T04:02:01.773Z,28.78
2023-05-21T04:03:01.937Z,28.12
2023-05-21T04:04:01.859Z,28.69
2023-05-21T04:05:01.750Z,30.45
2023-05-21T04:06:01.733Z,28.71
2023-05-21T04:07:01.718Z,25.14
2023-05-21T04:08:01.715Z,25.00
2023-05-21T04:09:01.708Z,26.11
2023-05-21T04:10:01.708Z,25.93
2023-05-21T04:11:01.716Z,26.29
2023-05-21T04:12:01.739Z,26.76
2023-05-21T04:13:01.703Z,26.26
2023-05-21T04:14:01.704Z,26.29
2023-05-21T04:15:01.710Z,25.86
2023-05-21T04:16:01.768Z,26.03
2023-05-21T04:17:01.716Z,26.25
2023-05-21T04:18:01.889Z,27.83
2023-05-21T04:19:01.742Z,28.55
2023-05-21T04:20:01.704Z,27.55
2023-05-21T04:21:01.715Z,25.51
2023-05-21T04:22:01.711Z,28.52
2023-05-21T04:23:01.704Z,25.93
2023-05-21T04:24:01.676Z,26.24
2023-05-21T04:25:01.675Z,26.99
2023-05-21T04:26:01.685Z,26.11
2023-05-21T04:27:01.793Z,25.00
2023-05-21T04:28:01.698Z,27.11
2023-05-21T04:29:01.663Z,26.78
2023-05-21T04:30:01.652Z,26.87
2023-05-21T04:31:01.715Z,28.93
2023-05-21T04:32:01.655Z,27.67
2023-05-21T04:33:01.704Z,28.40
2023-05-21T04:34:01.653Z,26.41
2023-05-21T04:35:01.666Z,27.79
2023-05-21T04:36:01.664Z,27.28
2023-05-21T04:37:01.646Z,27.75
2023-05-21T04:38:04.144Z,28.65
2023-05-21T04:39:01.629Z,32.36
2023-05-21T04:40:01.615Z,28.89
2023-05-21T04:41:01.604Z,26.99
2023-05-21T04:42:01.591Z,27.80
2023-05-21T04:43:01.568Z,28.27
2023-05-21T04:44:01.580Z,28.84
2023-05-21T04:45:01.544Z,29.05
2023-05-21T04:46:01.520Z,29.77
2023-05-21T04:47:01.570Z,27.24
2023-05-21T04:48:01.537Z,26.45
2023-05-21T04:49:01.477Z,29.92
2023-05-21T04:50:01.467Z,27.96
2023-05-21T04:51:01.478Z,29.59
2023-05-21T04:52:01.440Z,26.78
2023-05-21T04:53:01.425Z,27.01
2023-05-21T04:54:01.401Z,29.31
2023-05-21T04:55:01.410Z,28.28
2023-05-21T04:56:01.372Z,26.95
2023-05-21T04:57:01.404Z,25.44
2023-05-21T04:58:01.349Z,26.23
2023-05-21T04:59:02.354Z,27.43
2023-05-21T05:00:01.380Z,27.74
2023-05-21T05:01:01.345Z,28.32
2023-05-21T05:02:01.324Z,29.08
2023-05-21T05:03:01.349Z,29.39
2023-05-21T05:04:01.350Z,28.73
2023-05-21T05:05:01.253Z,29.21
2023-05-21T05:06:01.271Z,29.42
2023-05-21T05:07:01.244Z,28.37
2023-05-21T05:08:01.226Z,30.66
2023-05-21T05:09:01.236Z,26.07
2023-05-21T05:10:01.198Z,28.41
2023-05-21T05:11:01.192Z,29.58
2023-05-21T05:12:01.158Z,27.86
2023-05-21T05:13:01.159Z,28.02
2023-05-21T05:14:01.129Z,26.63
2023-05-21T05:15:01.114Z,28.45
2023-05-21T05:16:01.130Z,28.24
2023-05-21T05:17:01.150Z,27.65
2023-05-21T05:18:01.141Z,27.57
2023-05-21T05:19:01.088Z,27.27
2023-05-21T05:20:01.048Z,26.82
2023-05-21T05:21:01.074Z,26.12
2023-05-21T05:22:01.035Z,28.11
2023-05-21T05:23:01.006Z,26.59
2023-05-21T05:24:01.016Z,26.94
2023-05-21T05:25:00.984Z,26.44
2023-05-21T05:26:00.974Z,28.47
2023-05-21T05:27:00.944Z,26.78
2023-05-21T05:28:00.960Z,27.46
2023-05-21T05:29:00.923Z,27.26
2023-05-21T05:30:00.890Z,27.71
2023-05-21T05:31:00.906Z,26.60
2023-05-21T05:32:01.000Z,30.50
2023-05-21T05:33:00.947Z,28.20
2023-05-21T05:34:00.864Z,29.50
2023-05-21T05:35:02.407Z,27.41
2023-05-21T05:36:00.812Z,32.35
2023-05-21T05:37:00.798Z,33.32
2023-05-21T05:38:00.808Z,32.36
2023-05-21T05:39:00.763Z,30.30
2023-05-21T05:40:00.776Z,28.11
2023-05-21T05:41:00.734Z,29.55
2023-05-21T05:42:00.726Z,27.53
2023-05-21T05:43:00.718Z,29.40
2023-05-21T05:44:00.697Z,28.47
2023-05-21T05:45:00.664Z,28.75
2023-05-21T05:46:00.694Z,28.73
2023-05-21T05:47:00.635Z,29.48
2023-05-21T05:48:00.677Z,28.63
2023-05-21T05:49:00.604Z,27.38
2023-05-21T05:50:00.604Z,28.30
2023-05-21T05:51:00.586Z,27.92
2023-05-21T05:52:00.562Z,26.85
2023-05-21T05:53:00.543Z,26.41
2023-05-21T05:54:00.536Z,26.30
2023-05-21T05:55:00.514Z,26.54
2023-05-21T05:56:00.542Z,29.17
2023-05-21T05:57:00.494Z,27.37
2023-05-21T05:58:00.459Z,26.31
2023-05-21T05:59:00.442Z,28.29
2023-05-21T06:00:00.496Z,28.37
2023-05-21T06:01:00.458Z,25.28
2023-05-21T06:02:00.453Z,28.62
2023-05-21T06:03:00.554Z,26.89
2023-05-21T06:04:00.410Z,29.56
2023-05-21T06:05:00.396Z,29.72
2023-05-21T06:06:00.377Z,28.69
2023-05-21T06:07:00.326Z,28.33
2023-05-21T06:08:00.307Z,28.17
2023-05-21T06:09:00.273Z,26.40
2023-05-21T06:10:00.262Z,28.35
2023-05-21T06:11:00.249Z,29.84
2023-05-21T06:12:00.254Z,28.57
2023-05-21T06:13:00.204Z,26.94
2023-05-21T06:14:00.177Z,28.60
2023-05-21T06:15:00.173Z,28.31
2023-05-21T06:16:00.191Z,29.86
2023-05-21T06:17:00.159Z,29.83
2023-05-21T06:18:00.242Z,28.79
2023-05-21T06:19:00.166Z,27.99
2023-05-21T06:20:00.137Z,29.21
2023-05-21T06:21:00.054Z,27.10
2023-05-21T06:22:00.043Z,30.61
2023-05-21T06:23:00.014Z,26.44
2023-05-21T06:23:59.994Z,26.20
2023-05-21T06:24:59.991Z,28.37
2023-05-21T06:25:59.974Z,26.81
2023-05-21T06:26:59.958Z,27.94
2023-05-21T06:27:59.955Z,27.88
2023-05-21T06:28:59.923Z,27.66
2023-05-21T06:29:59.900Z,27.02
2023-05-21T06:30:59.886Z,27.25
2023-05-21T06:31:59.871Z,28.75
2023-05-21T06:32:59.891Z,25.73
2023-05-21T06:33:59.994Z,26.90
2023-05-21T06:34:59.828Z,25.60
2023-05-21T06:35:59.940Z,27.91
2023-05-21T06:36:59.807Z,27.84
2023-05-21T06:37:59.799Z,28.00
2023-05-21T06:38:59.782Z,27.98
2023-05-21T06:39:59.763Z,28.44
2023-05-21T06:40:59.741Z,27.92
2023-05-21T06:41:59.784Z,28.20
2023-05-21T06:42:59.693Z,28.83
2023-05-21T06:43:59.668Z,27.60
2023-05-21T06:44:59.654Z,28.46
2023-05-21T06:45:59.647Z,27.44
2023-05-21T06:46:59.605Z,26.57
2023-05-21T06:47:59.649Z,25.63
2023-05-21T06:48:59.565Z,27.27
2023-05-21T06:49:59.541Z,28.54
2023-05-21T06:50:59.518Z,25.95
2023-05-21T06:51:59.625Z,27.67
2023-05-21T06:52:59.480Z,29.09
2023-05-21T06:53:59.473Z,28.24
2023-05-21T06:54:59.476Z,31.00
2023-05-21T06:55:59.420Z,27.88
2023-05-21T06:56:59.397Z,29.32
2023-05-21T06:57:59.376Z,27.15
2023-05-21T06:58:59.366Z,28.70
2023-05-21T06:59:59.329Z,27.15
2023-05-21T07:00:59.347Z,27.63
2023-05-21T07:01:59.328Z,28.33
2023-05-21T07:02:59.324Z,27.54
2023-05-21T07:03:59.327Z,28.78
2023-05-21T07:04:59.217Z,25.68
2023-05-21T07:05:59.208Z,26.81
2023-05-21T07:06:59.177Z,30.58
2023-05-21T07:07:59.174Z,29.24
2023-05-21T07:08:59.159Z,31.03
2023-05-21T07:09:59.097Z,27.89
2023-05-21T07:10:59.087Z,27.67
2023-05-21T07:11:59.051Z,27.54
2023-05-21T07:12:59.042Z,27.80
2023-05-21T07:13:59.009Z,30.00
2023-05-21T07:14:59.469Z,25.51
2023-05-21T07:15:58.973Z,30.22
2023-05-21T07:16:59.035Z,28.80
2023-05-21T07:17:59.025Z,28.92
2023-05-21T07:18:59.040Z,30.19
2023-05-21T07:19:59.016Z,28.40
2023-05-21T07:20:58.998Z,29.96
2023-05-21T07:21:59.058Z,27.55
2023-05-21T07:22:59.083Z,26.43
2023-05-21T07:23:59.155Z,27.15
2023-05-21T07:24:59.186Z,30.88
2023-05-21T07:25:59.217Z,26.07
2023-05-21T07:26:59.265Z,29.73
2023-05-21T07:27:59.319Z,27.77
2023-05-21T07:28:59.367Z,26.85
2023-05-21T07:29:59.433Z,31.08
2023-05-21T07:30:59.542Z,29.88
2023-05-21T07:31:59.528Z,29.85
2023-05-21T07:32:59.601Z,25.76
2023-05-21T07:33:59.596Z,29.08
2023-05-21T07:34:59.676Z,30.01
2023-05-21T07:35:59.745Z,30.91
2023-05-21T07:36:59.752Z,31.01
2023-05-21T07:37:59.837Z,28.85
2023-05-21T07:38:59.843Z,29.28
2023-05-21T07:39:59.933Z,31.00
2023-05-21T07:41:00.001Z,28.46
2023-05-21T07:42:00.075Z,29.66
2023-05-21T07:43:00.058Z,29.91
2023-05-21T07:44:00.122Z,27.06
2023-05-21T07:45:00.200Z,25.92
2023-05-21T07:46:00.327Z,28.90
2023-05-21T07:47:00.263Z,27.21
2023-05-21T07:48:00.357Z,31.29
2023-05-21T07:49:00.396Z,28.25
2023-05-21T07:50:00.446Z,30.46
2023-05-21T07:51:00.493Z,29.74
2023-05-21T07:52:00.571Z,30.10
2023-05-21T07:53:00.683Z,29.73
2023-05-21T07:54:00.653Z,28.71
2023-05-21T07:55:00.698Z,26.73
2023-05-21T07:56:00.770Z,27.91
2023-05-21T07:57:00.796Z,30.39
2023-05-21T07:58:00.833Z,29.29
2023-05-21T07:59:00.880Z,30.10
2023-05-21T08:00:00.935Z,29.85
2023-05-21T08:01:01.005Z,29.58
2023-05-21T08:02:01.047Z,28.46
2023-05-21T08:03:01.220Z,32.05
2023-05-21T08:04:01.302Z,29.95
2023-05-21T08:05:01.275Z,28.67
2023-05-21T08:06:01.247Z,28.00
2023-05-21T08:07:01.306Z,31.78
2023-05-21T08:08:01.364Z,30.24
2023-05-21T08:09:01.406Z,28.28
2023-05-21T08:10:02.849Z,29.06
2023-05-21T08:11:01.657Z,31.14
2023-05-21T08:12:01.720Z,31.47
2023-05-21T08:13:01.738Z,31.87
2023-05-21T08:14:01.789Z,28.91
2023-05-21T08:15:01.866Z,33.48
2023-05-21T08:16:01.941Z,31.17
2023-05-21T08:17:01.957Z,32.18
2023-05-21T08:18:02.045Z,31.08
2023-05-21T08:19:02.116Z,31.33
2023-05-21T08:20:02.113Z,32.53
2023-05-21T08:21:02.167Z,29.11
2023-05-21T08:22:02.222Z,32.67
2023-05-21T08:23:02.300Z,32.35
2023-05-21T08:24:02.323Z,31.77
2023-05-21T08:25:02.393Z,32.77
2023-05-21T08:26:02.453Z,32.11
2023-05-21T08:27:02.485Z,32.33
2023-05-21T08:28:02.548Z,31.77
2023-05-21T08:29:02.576Z,33.31
2023-05-21T08:30:02.629Z,32.66
2023-05-21T08:31:02.669Z,32.61
2023-05-21T08:32:02.780Z,31.53
2023-05-21T08:33:02.824Z,30.03
2023-05-21T08:34:02.803Z,28.89
2023-05-21T08:35:02.851Z,29.59
2023-05-21T08:36:02.926Z,32.50
2023-05-21T08:37:02.929Z,33.00
2023-05-21T08:38:02.978Z,31.18
2023-05-21T08:39:03.024Z,31.11
2023-05-21T08:40:03.077Z,32.20
2023-05-21T08:41:03.128Z,29.81
2023-05-21T08:42:03.158Z,29.63
2023-05-21T08:43:03.221Z,30.90
2023-05-21T08:44:03.388Z,29.81
2023-05-21T08:45:03.287Z,30.85
2023-05-21T08:46:03.378Z,29.80
2023-05-21T08:47:03.377Z,31.32
2023-05-21T08:48:03.480Z,31.85
2023-05-21T08:49:03.497Z,31.22
2023-05-21T08:50:03.497Z,30.05
2023-05-21T08:51:03.564Z,32.07
2023-05-21T08:52:03.587Z,30.55
2023-05-21T08:53:07.475Z,33.51
2023-05-21T08:54:03.627Z,33.76
2023-05-21T08:55:03.610Z,34.37
2023-05-21T08:56:03.600Z,34.67
2023-05-21T08:57:03.597Z,33.68
2023-05-21T08:58:03.592Z,30.72
2023-05-21T08:59:03.554Z,34.13
2023-05-21T09:00:03.555Z,31.25
2023-05-21T09:01:03.565Z,30.46
2023-05-21T09:02:03.503Z,30.34
2023-05-21T09:03:03.625Z,29.61
2023-05-21T09:04:18.866Z,32.24
2023-05-21T09:05:03.610Z,32.62
2023-05-21T09:06:03.467Z,33.76
2023-05-21T09:07:03.459Z,32.52
2023-05-21T09:08:03.454Z,31.13
2023-05-21T09:09:03.453Z,32.16
2023-05-21T09:10:03.430Z,32.61
2023-05-21T09:11:03.452Z,32.35
2023-05-21T09:12:03.391Z,28.56
2023-05-21T09:13:03.379Z,30.89
2023-05-21T09:14:03.361Z,32.19
2023-05-21T09:15:03.351Z,30.80
2023-05-21T09:16:03.363Z,31.76
2023-05-21T09:17:03.367Z,34.43
2023-05-21T09:18:03.319Z,30.75
2023-05-21T09:19:04.736Z,34.11
2023-05-21T09:20:03.454Z,35.89
2023-05-21T09:21:03.491Z,32.67
2023-05-21T09:22:03.532Z,34.67
2023-05-21T09:23:03.595Z,34.73
2023-05-21T09:24:03.608Z,37.98
2023-05-21T09:25:03.637Z,35.73
2023-05-21T09:26:03.691Z,37.05
2023-05-21T09:27:03.724Z,35.21
2023-05-21T09:28:03.759Z,33.50
2023-05-21T09:29:03.793Z,36.65
2023-05-21T09:30:03.840Z,31.98
2023-05-21T09:31:03.902Z,35.74
2023-05-21T09:32:03.932Z,35.00
2023-05-21T09:33:04.009Z,35.04
2023-05-21T09:34:03.982Z,33.26
2023-05-21T09:35:04.010Z,33.44
2023-05-21T09:36:04.059Z,34.17
2023-05-21T09:37:06.538Z,35.74
2023-05-21T09:38:04.101Z,36.04
2023-05-21T09:39:04.122Z,36.22
2023-05-21T09:40:04.141Z,36.69
2023-05-21T09:41:04.181Z,36.08
2023-05-21T09:42:04.191Z,35.27
2023-05-21T09:43:04.221Z,36.49
2023-05-21T09:44:04.284Z,36.99
2023-05-21T09:45:04.321Z,33.41
2023-05-21T09:46:04.326Z,36.30
2023-05-21T09:47:04.356Z,37.51
2023-05-21T09:48:04.441Z,35.93
2023-05-21T09:49:04.445Z,37.98
2023-05-21T09:50:04.462Z,35.77
2023-05-21T09:51:04.545Z,36.69
2023-05-21T09:52:04.537Z,37.79
2023-05-21T09:53:04.586Z,37.65
2023-05-21T09:54:04.625Z,34.71
2023-05-21T09:55:04.646Z,36.75
2023-05-21T09:56:04.696Z,35.90
2023-05-21T09:57:04.744Z,35.36
2023-05-21T09:58:04.765Z,37.54
2023-05-21T09:59:04.789Z,36.95
2023-05-21T10:00:04.828Z,38.50
2023-05-21T10:01:04.860Z,36.96
2023-05-21T10:02:04.986Z,39.15
2023-05-21T10:03:04.957Z,36.63
2023-05-21T10:04:05.027Z,38.29
2023-05-21T10:05:05.019Z,39.35
2023-05-21T10:06:05.055Z,39.08
2023-05-21T10:07:05.083Z,39.02
2023-05-21T10:08:05.127Z,40.26
2023-05-21T10:09:05.899Z,40.59
2023-05-21T10:10:05.278Z,41.29
2023-05-21T10:11:05.241Z,41.23
2023-05-21T10:12:05.287Z,40.36
2023-05-21T10:13:05.320Z,40.49
2023-05-21T10:14:05.347Z,39.97
2023-05-21T10:15:05.386Z,39.38
2023-05-21T10:16:05.466Z,42.78
2023-05-21T10:17:05.453Z,41.45
2023-05-21T10:18:05.537Z,41.77
2023-05-21T10:19:05.549Z,40.43
2023-05-21T10:20:05.587Z,40.87
2023-05-21T10:21:05.599Z,38.29
2023-05-21T10:22:05.631Z,40.86
2023-05-21T10:23:05.662Z,38.32
2023-05-21T10:24:05.696Z,41.87
2023-05-21T10:25:05.725Z,41.05
2023-05-21T10:26:05.762Z,41.51
2023-05-21T10:27:05.786Z,39.40
2023-05-21T10:28:05.829Z,40.22
2023-05-21T10:29:05.860Z,40.48
2023-05-21T10:30:05.893Z,39.30
2023-05-21T10:31:05.907Z,41.15
2023-05-21T10:32:05.976Z,42.01
2023-05-21T10:33:06.024Z,39.26
2023-05-21T10:34:06.203Z,40.59
2023-05-21T10:35:06.028Z,42.73
2023-05-21T10:36:06.078Z,40.39
2023-05-21T10:37:06.082Z,40.99
2023-05-21T10:38:06.107Z,39.87
2023-05-21T10:39:06.161Z,43.97
2023-05-21T10:40:06.178Z,40.93
2023-05-21T10:41:06.190Z,40.52
2023-05-21T10:42:06.213Z,42.24
2023-05-21T10:43:06.238Z,44.02
2023-05-21T10:44:06.274Z,42.45
2023-05-21T10:45:06.304Z,45.18
2023-05-21T10:46:06.368Z,43.32
2023-05-21T10:47:06.346Z,43.85
2023-05-21T10:48:06.462Z,43.28
2023-05-21T10:49:06.405Z,42.83
2023-05-21T10:50:06.442Z,42.90
2023-05-21T10:51:06.505Z,42.96
2023-05-21T10:52:06.512Z,42.68
2023-05-21T10:53:07.277Z,44.61
2023-05-21T10:54:06.494Z,44.70
2023-05-21T10:55:06.499Z,45.60
2023-05-21T10:56:06.444Z,43.52
2023-05-21T10:57:06.421Z,42.78
2023-05-21T10:58:06.415Z,42.87
2023-05-21T10:59:06.382Z,43.88
2023-05-21T11:00:06.375Z,41.40
2023-05-21T11:01:06.397Z,40.91
2023-05-21T11:02:06.334Z,41.56
2023-05-21T11:03:06.393Z,40.15
2023-05-21T11:04:06.267Z,43.37
2023-05-21T11:05:06.254Z,42.12
2023-05-21T11:06:06.231Z,41.59
2023-05-21T11:07:06.220Z,40.78
2023-05-21T11:08:06.327Z,40.73
2023-05-21T11:09:06.180Z,40.88
2023-05-21T11:10:06.158Z,42.52
2023-05-21T11:11:06.140Z,41.70
2023-05-21T11:12:06.118Z,42.45
2023-05-21T11:13:06.106Z,42.65
2023-05-21T11:14:06.073Z,43.08
2023-05-21T11:15:06.051Z,41.77
2023-05-21T11:16:06.066Z,44.19
2023-05-21T11:17:06.040Z,43.62
2023-05-21T11:18:06.035Z,43.37
2023-05-21T11:19:06.023Z,42.89
2023-05-21T11:20:05.954Z,43.73
2023-05-21T11:21:05.940Z,43.84
2023-05-21T11:22:05.918Z,42.26
2023-05-21T11:23:05.902Z,43.42
2023-05-21T11:24:05.917Z,42.91
2023-05-21T11:25:05.869Z,45.00
2023-05-21T11:26:05.856Z,44.57
2023-05-21T11:27:05.831Z,44.82
2023-05-21T11:28:05.827Z,46.00
2023-05-21T11:29:05.813Z,44.87
2023-05-21T11:30:05.787Z,44.33
2023-05-21T11:31:05.798Z,43.47
2023-05-21T11:32:05.781Z,43.22
2023-05-21T11:33:05.824Z,45.42
2023-05-21T11:34:05.786Z,44.03
2023-05-21T11:35:05.813Z,46.49
2023-05-21T11:36:05.826Z,42.69
2023-05-21T11:37:05.844Z,46.30
2023-05-21T11:38:05.863Z,42.38
2023-05-21T11:39:05.878Z,44.48
2023-05-21T11:40:06.179Z,45.87
2023-05-21T11:41:05.913Z,45.23
2023-05-21T11:42:05.931Z,47.14
2023-05-21T11:43:05.954Z,46.51
2023-05-21T11:44:05.966Z,44.68
2023-05-21T11:45:06.005Z,43.02
2023-05-21T11:46:06.063Z,45.04
2023-05-21T11:47:06.024Z,45.02
2023-05-21T11:48:06.083Z,44.09
2023-05-21T11:49:06.058Z,44.03
2023-05-21T11:50:06.082Z,46.36
2023-05-21T11:51:06.122Z,46.17
2023-05-21T11:52:06.118Z,47.48
2023-05-21T11:53:06.130Z,48.34
2023-05-21T11:54:07.043Z,47.02
2023-05-21T11:55:06.172Z,48.98
2023-05-21T11:56:06.215Z,45.85
2023-05-21T11:57:06.207Z,46.69
2023-05-21T11:58:06.223Z,48.30
2023-05-21T11:59:06.244Z,47.26
2023-05-21T12:00:06.252Z,47.25
2023-05-21T12:01:06.271Z,48.30
2023-05-21T12:02:06.289Z,46.22
2023-05-21T12:03:06.389Z,46.52
2023-05-21T12:04:06.349Z,48.63
2023-05-21T12:05:06.325Z,48.29
2023-05-21T12:06:06.362Z,47.96
2023-05-21T12:07:06.353Z,48.15
2023-05-21T12:08:06.361Z,46.70
2023-05-21T12:09:06.388Z,47.06
2023-05-21T12:10:06.394Z,47.05
2023-05-21T12:11:06.397Z,48.22
2023-05-21T12:12:06.465Z,48.22
2023-05-21T12:13:06.420Z,48.20
2023-05-21T12:14:06.435Z,48.94
2023-05-21T12:15:06.436Z,49.13
2023-05-21T12:16:07.104Z,45.81
2023-05-21T12:17:06.456Z,48.57
2023-05-21T12:18:06.524Z,49.53
2023-05-21T12:19:06.548Z,48.36
2023-05-21T12:20:06.488Z,49.29
2023-05-21T12:21:06.542Z,49.60
2023-05-21T12:22:06.534Z,52.42
2023-05-21T12:23:06.603Z,50.50
2023-05-21T12:24:06.554Z,50.80
2023-05-21T12:25:06.579Z,51.51
2023-05-21T12:26:06.581Z,50.38
2023-05-21T12:27:06.593Z,51.63
2023-05-21T12:28:06.634Z,52.72
2023-05-21T12:29:06.623Z,49.02
2023-05-21T12:30:06.626Z,51.14
2023-05-21T12:31:06.645Z,50.70
2023-05-21T12:32:06.728Z,53.86
2023-05-21T12:33:06.703Z,52.27
2023-05-21T12:34:06.670Z,52.35
2023-05-21T12:35:06.726Z,52.99
2023-05-21T12:36:06.687Z,51.52
2023-05-21T12:37:06.710Z,51.69
2023-05-21T12:38:06.704Z,52.58
2023-05-21T12:39:06.712Z,51.46
2023-05-21T12:40:06.718Z,51.71
2023-05-21T12:41:06.740Z,51.45
2023-05-21T12:42:06.739Z,52.79
2023-05-21T12:43:06.739Z,53.74
2023-05-21T12:44:06.782Z,54.85
2023-05-21T12:45:06.776Z,53.46
2023-05-21T12:46:06.839Z,54.42
2023-05-21T12:47:06.816Z,53.31
2023-05-21T12:48:06.896Z,52.98
2023-05-21T12:49:06.833Z,55.15
2023-05-21T12:50:06.843Z,54.66
2023-05-21T12:51:06.849Z,53.52
2023-05-21T12:52:06.854Z,54.43